createdAt,value
2022-11-16T00:00:05.330Z,3.85
2022-11-16T00:04:11.878Z,8.50
2022-11-16T00:08:13.599Z,5.68
2022-11-16T00:12:15.238Z,7.82
2022-11-16T00:16:18.306Z,6.50
2022-11-16T00:20:20.117Z,7.68
2022-11-16T00:24:23.355Z,6.72
2022-11-16T00:28:25.067Z,7.18
2022-11-16T00:32:26.742Z,6.03
2022-11-16T00:36:28.510Z,8.07
2022-11-16T00:40:30.234Z,7.03
2022-11-16T00:44:31.921Z,4.75
2022-11-16T00:48:33.966Z,10.30
2022-11-16T00:52:36.378Z,6.90
2022-11-16T00:56:38.541Z,10.30
2022-11-16T01:00:42.370Z,7.63
2022-11-16T01:04:44.240Z,10.45
2022-11-16T01:08:47.023Z,9.02
2022-11-16T01:12:50.323Z,5.45
2022-11-16T01:16:52.023Z,11.65
2022-11-16T01:20:55.355Z,11.15
2022-11-16T01:24:57.087Z,8.88
2022-11-16T01:28:59.716Z,11.20
2022-11-16T01:33:05.106Z,10.67
2022-11-16T01:37:06.853Z,9.98
2022-11-16T01:41:15.737Z,11.68
2022-11-16T01:45:44.108Z,10.65
2022-11-16T01:49:52.969Z,12.15
2022-11-16T01:54:02.832Z,10.52
2022-11-16T01:58:06.686Z,10.07
2022-11-16T02:02:10.552Z,10.23
2022-11-16T02:06:45.512Z,10.02
2022-11-16T02:11:33.499Z,11.40
2022-11-16T02:15:45.252Z,10.18
2022-11-16T02:20:24.364Z,5.97
2022-11-16T02:24:46.426Z,16.52
2022-11-16T02:29:09.847Z,10.45
2022-11-16T02:33:18.420Z,9.60
2022-11-16T02:37:23.597Z,13.55
2022-11-16T02:41:28.555Z,7.28
2022-11-16T02:45:35.443Z,9.38
2022-11-16T02:49:44.889Z,8.88
2022-11-16T02:54:03.582Z,9.60
2022-11-16T02:58:14.414Z,8.18
2022-11-16T03:02:34.574Z,11.82
2022-11-16T03:06:41.555Z,8.32
2022-11-16T03:11:11.266Z,8.75
2022-11-16T03:15:14.691Z,10.45
2022-11-16T03:19:22.572Z,11.27
2022-11-16T03:23:24.301Z,10.18
2022-11-16T03:27:38.035Z,10.15
2022-11-16T03:31:52.667Z,8.18
2022-11-16T03:36:17.073Z,5.95
2022-11-16T03:40:20.407Z,8.75
2022-11-16T03:44:24.003Z,11.07
2022-11-16T03:48:25.758Z,11.73
2022-11-16T03:52:27.524Z,6.88
2022-11-16T03:56:29.372Z,5.30
2022-11-16T04:00:31.970Z,7.15
2022-11-16T04:05:00.449Z,8.80
2022-11-16T04:09:20.911Z,9.20
2022-11-16T04:13:49.400Z,10.77
2022-11-16T04:18:09.934Z,8.82
2022-11-16T04:22:38.837Z,6.43
2022-11-16T04:27:02.739Z,10.90
2022-11-16T04:31:24.166Z,9.55
2022-11-16T04:36:01.306Z,6.10
2022-11-16T04:40:04.384Z,6.45
2022-11-16T04:44:06.124Z,8.65
2022-11-16T04:48:11.277Z,9.43
2022-11-16T04:52:14.194Z,8.52
2022-11-16T04:56:17.487Z,6.60
2022-11-16T05:00:19.909Z,7.10
2022-11-16T05:04:22.575Z,4.10
2022-11-16T05:08:25.482Z,5.28
2022-11-16T05:12:28.758Z,6.07
2022-11-16T05:16:34.120Z,7.05
2022-11-16T05:20:54.547Z,8.20
2022-11-16T05:24:56.457Z,7.10
2022-11-16T05:28:58.952Z,5.78
2022-11-16T05:33:01.300Z,8.45
2022-11-16T05:37:06.265Z,5.65
2022-11-16T05:41:08.723Z,6.72
2022-11-16T05:45:10.549Z,5.63
2022-11-16T05:49:13.856Z,8.15
2022-11-16T05:53:15.669Z,6.90
2022-11-16T05:57:17.494Z,5.20
2022-11-16T06:01:19.258Z,5.32
2022-11-16T06:05:21.270Z,4.57
2022-11-16T06:09:23.391Z,7.40
2022-11-16T06:13:25.313Z,5.55
2022-11-16T06:17:33.790Z,3.33
2022-11-16T06:21:36.391Z,3.60
2022-11-16T06:25:40.876Z,3.33
2022-11-16T06:29:43.996Z,4.15
2022-11-16T06:33:45.716Z,5.97
2022-11-16T06:37:55.531Z,4.38
2022-11-16T06:41:58.827Z,4.85
2022-11-16T06:46:00.771Z,4.90
2022-11-16T06:50:02.817Z,3.63
2022-11-16T06:54:06.257Z,4.90
2022-11-16T06:58:08.311Z,4.25
2022-11-16T07:02:13.246Z,5.05
2022-11-16T07:06:16.480Z,5.53
2022-11-16T07:10:21.099Z,5.53
2022-11-16T07:14:23.024Z,5.82
2022-11-16T07:18:24.845Z,5.40
2022-11-16T07:22:26.766Z,5.03
2022-11-16T07:26:31.145Z,6.20
2022-11-16T07:30:37.455Z,5.13
2022-11-16T07:34:43.414Z,4.03
2022-11-16T07:38:49.498Z,3.83
2022-11-16T07:42:51.232Z,2.40
2022-11-16T07:47:11.732Z,4.80
2022-11-16T07:51:16.471Z,3.40
2022-11-16T07:55:25.697Z,3.42
2022-11-16T07:59:28.435Z,3.85
2022-11-16T08:03:31.407Z,7.15
2022-11-16T08:07:35.402Z,4.60
2022-11-16T08:11:38.120Z,6.53
2022-11-16T08:15:39.873Z,6.68
2022-11-16T08:19:44.183Z,6.93
2022-11-16T08:23:50.702Z,7.15
2022-11-16T08:27:56.521Z,5.55
2022-11-16T08:31:58.926Z,4.82
2022-11-16T08:36:09.472Z,7.53
2022-11-16T08:40:15.113Z,8.35
2022-11-16T08:44:18.096Z,6.53
2022-11-16T08:48:24.431Z,5.15
2022-11-16T08:52:27.662Z,6.38
2022-11-16T08:56:30.978Z,5.65
2022-11-16T09:00:32.837Z,5.22
2022-11-16T09:04:37.244Z,4.60
2022-11-16T09:08:41.162Z,6.07
2022-11-16T09:12:42.864Z,4.80
2022-11-16T09:16:44.625Z,3.78
2022-11-16T09:20:46.292Z,3.50
2022-11-16T09:24:47.955Z,4.65
2022-11-16T09:28:59.028Z,6.28
2022-11-16T09:33:01.809Z,4.47
2022-11-16T09:37:03.495Z,4.70
2022-11-16T09:41:23.861Z,3.78
2022-11-16T09:45:48.655Z,3.25
2022-11-16T09:49:58.161Z,3.47
2022-11-16T09:54:08.358Z,2.80
2022-11-16T09:58:17.774Z,3.95
2022-11-16T10:02:28.303Z,4.20
2022-11-16T10:06:51.160Z,3.45
2022-11-16T10:11:17.608Z,3.35
2022-11-16T10:15:34.225Z,3.28
2022-11-16T10:19:53.258Z,2.20
2022-11-16T10:24:24.127Z,2.75
2022-11-16T10:28:38.533Z,3.17
2022-11-16T10:32:52.949Z,3.08
2022-11-16T10:36:59.695Z,2.30
2022-11-16T10:41:14.435Z,4.28
2022-11-16T10:45:28.707Z,3.35
2022-11-16T10:49:46.069Z,5.88
2022-11-16T10:53:47.846Z,4.28
2022-11-16T10:58:06.126Z,2.28
2022-11-16T11:02:35.921Z,2.35
2022-11-16T11:06:38.716Z,3.13
2022-11-16T11:10:41.792Z,3.15
2022-11-16T11:15:22.772Z,4.53
2022-11-16T11:19:28.812Z,3.13
2022-11-16T11:23:31.006Z,3.30
2022-11-16T11:27:37.443Z,2.78
2022-11-16T11:31:45.515Z,2.40
2022-11-16T11:35:58.868Z,2.67
2022-11-16T11:40:09.540Z,1.80
2022-11-16T11:44:17.306Z,2.05
2022-11-16T11:48:37.304Z,2.08
2022-11-16T11:53:07.523Z,2.97
2022-11-16T11:57:15.590Z,2.17
2022-11-16T12:01:39.602Z,2.72
2022-11-16T12:06:06.371Z,1.40
2022-11-16T12:10:30.372Z,1.63
2022-11-16T12:14:49.352Z,1.30
2022-11-16T12:19:18.156Z,1.58
2022-11-16T12:23:38.726Z,2.22
2022-11-16T12:27:58.851Z,1.42
2022-11-16T12:32:18.303Z,1.50
2022-11-16T12:36:45.890Z,1.63
2022-11-16T12:41:02.705Z,1.40
2022-11-16T12:45:32.656Z,2.35
2022-11-16T12:49:59.187Z,1.88
2022-11-16T12:54:18.855Z,1.30
2022-11-16T12:58:54.069Z,1.70
2022-11-16T13:03:07.766Z,1.85
2022-11-16T13:07:18.418Z,1.60
2022-11-16T13:11:27.603Z,1.60
2022-11-16T13:15:39.415Z,1.30
2022-11-16T13:19:44.417Z,1.50
2022-11-16T13:24:23.488Z,2.15
2022-11-16T13:28:57.005Z,2.25
2022-11-16T13:33:20.675Z,1.50
2022-11-16T13:37:34.292Z,2.58
2022-11-16T13:41:38.645Z,1.70
2022-11-16T13:45:44.297Z,2.40
2022-11-16T13:50:01.558Z,1.42
2022-11-16T13:54:43.886Z,1.30
2022-11-16T13:58:26.744Z,2.33
2022-11-16T14:02:30.606Z,1.40
2022-11-16T14:06:32.194Z,1.50
2022-11-16T14:10:33.836Z,1.50
2022-11-16T14:15:03.900Z,1.30
2022-11-16T14:19:55.046Z,1.23
2022-11-16T14:23:56.862Z,1.40
2022-11-16T14:28:26.874Z,1.30
2022-11-16T14:32:39.765Z,2.67
2022-11-16T14:36:45.971Z,1.63
2022-11-16T14:40:56.259Z,1.60
2022-11-16T14:45:04.423Z,1.10
2022-11-16T14:49:15.991Z,1.77
2022-11-16T14:53:19.965Z,1.20
2022-11-16T14:57:23.565Z,1.85
2022-11-16T15:01:39.146Z,1.40
2022-11-16T15:05:40.901Z,1.17
2022-11-16T15:09:50.533Z,1.30
2022-11-16T15:13:52.280Z,1.30
2022-11-16T15:18:00.037Z,1.55
2022-11-16T15:22:04.258Z,1.60
2022-11-16T15:26:06.050Z,2.17
2022-11-16T15:30:23.236Z,1.25
2022-11-16T15:34:25.115Z,1.77
2022-11-16T15:38:33.553Z,1.30
2022-11-16T15:42:37.490Z,1.25
2022-11-16T15:46:40.437Z,1.25
2022-11-16T15:51:04.253Z,1.30
2022-11-16T15:55:19.603Z,1.40
2022-11-16T15:59:26.688Z,1.30
2022-11-16T16:03:31.793Z,1.13
2022-11-16T16:07:42.908Z,1.13
2022-11-16T16:11:44.629Z,1.25
2022-11-16T16:15:46.383Z,1.20
2022-11-16T16:19:55.538Z,1.30
2022-11-16T16:24:01.140Z,1.42
2022-11-16T16:28:03.889Z,1.90
2022-11-16T16:32:05.922Z,1.75
2022-11-16T16:36:08.104Z,2.17
2022-11-16T16:40:10.269Z,1.63
2022-11-16T16:44:15.095Z,2.05
2022-11-16T16:48:16.817Z,1.90
2022-11-16T16:52:18.576Z,1.60
2022-11-16T16:56:20.324Z,1.30
2022-11-16T17:00:22.129Z,2.13
2022-11-16T17:04:23.909Z,1.60
2022-11-16T17:08:25.720Z,1.50
2022-11-16T17:12:27.851Z,1.30
2022-11-16T17:16:29.714Z,1.65
2022-11-16T17:20:32.752Z,1.30
2022-11-16T17:24:35.102Z,1.33
2022-11-16T17:28:36.972Z,1.92
2022-11-16T17:32:38.667Z,3.88
2022-11-16T17:36:40.442Z,2.08
2022-11-16T17:40:42.076Z,2.55
2022-11-16T17:44:43.999Z,2.70
2022-11-16T17:48:47.210Z,3.70
2022-11-16T17:52:48.843Z,2.80
2022-11-16T17:56:50.493Z,2.58
2022-11-16T18:00:52.224Z,3.45
2022-11-16T18:04:53.918Z,1.88
2022-11-16T18:08:56.981Z,2.00
2022-11-16T18:12:58.704Z,2.50
2022-11-16T18:17:00.399Z,2.55
2022-11-16T18:21:02.265Z,2.33
2022-11-16T18:25:04.259Z,2.00
2022-11-16T18:29:06.702Z,2.85
2022-11-16T18:33:08.470Z,3.22
2022-11-16T18:37:10.200Z,3.47
2022-11-16T18:41:11.837Z,4.95
2022-11-16T18:45:13.877Z,5.57
2022-11-16T18:49:15.893Z,8.68
2022-11-16T18:53:17.556Z,3.85
2022-11-16T18:57:19.285Z,4.30
2022-11-16T19:01:27.362Z,3.22
2022-11-16T19:05:29.128Z,2.95
2022-11-16T19:09:30.782Z,2.65
2022-11-16T19:13:33.472Z,4.00
2022-11-16T19:17:43.709Z,2.28
2022-11-16T19:21:57.240Z,2.80
2022-11-16T19:26:04.875Z,4.95
2022-11-16T19:30:07.145Z,2.45
2022-11-16T19:34:11.696Z,2.72
2022-11-16T19:38:13.351Z,2.03
2022-11-16T19:42:15.020Z,1.80
2022-11-16T19:46:17.547Z,2.10
2022-11-16T19:50:19.196Z,2.03
2022-11-16T19:54:20.851Z,2.00
2022-11-16T19:58:22.579Z,3.55
2022-11-16T20:02:24.243Z,2.92
2022-11-16T20:06:29.239Z,4.45
2022-11-16T20:10:31.032Z,2.67
2022-11-16T20:14:32.709Z,2.65
2022-11-16T20:18:34.393Z,2.20
2022-11-16T20:22:36.048Z,5.63
2022-11-16T20:26:42.068Z,2.50
2022-11-16T20:30:47.423Z,2.55
2022-11-16T20:34:49.101Z,5.15
2022-11-16T20:38:51.601Z,2.40
2022-11-16T20:42:57.803Z,3.88
2022-11-16T20:46:59.456Z,4.53
2022-11-16T20:51:01.559Z,3.60
2022-11-16T20:55:03.326Z,3.78
2022-11-16T20:59:05.433Z,2.90
2022-11-16T21:03:07.104Z,2.92
2022-11-16T21:07:08.770Z,2.65
2022-11-16T21:11:16.144Z,4.57
2022-11-16T21:15:17.886Z,3.53
2022-11-16T21:19:19.740Z,3.97
2022-11-16T21:23:21.448Z,5.75
2022-11-16T21:27:23.305Z,3.08
2022-11-16T21:31:29.959Z,4.40
2022-11-16T21:35:31.624Z,6.80
2022-11-16T21:39:33.260Z,3.55
2022-11-16T21:43:38.317Z,2.78
2022-11-16T21:47:40.035Z,2.00
2022-11-16T21:51:41.661Z,2.75
2022-11-16T21:55:48.808Z,3.30
2022-11-16T22:04:10.842Z,3.00
2022-11-16T22:08:12.566Z,4.05
2022-11-16T22:12:14.191Z,3.58
2022-11-16T22:16:17.201Z,3.90
2022-11-16T22:20:19.093Z,2.53
2022-11-16T22:24:20.717Z,4.95
2022-11-16T22:28:22.435Z,3.88
2022-11-16T22:32:24.092Z,4.32
2022-11-16T22:36:25.786Z,3.05
2022-11-16T22:40:27.454Z,4.47
2022-11-16T22:44:29.172Z,4.13
2022-11-16T22:48:32.591Z,2.45
2022-11-16T22:52:34.295Z,3.00
2022-11-16T22:56:36.083Z,2.38
2022-11-16T23:00:41.993Z,3.03
2022-11-16T23:04:44.089Z,2.73
2022-11-16T23:08:45.790Z,2.22
2022-11-16T23:13:05.808Z,2.03
2022-11-16T23:17:08.473Z,2.28
2022-11-16T23:21:28.837Z,3.65
2022-11-16T23:25:49.157Z,4.45
2022-11-16T23:29:50.893Z,3.22
2022-11-16T23:33:52.563Z,2.60
2022-11-16T23:37:57.085Z,2.83
2022-11-16T23:42:17.752Z,3.70
2022-11-16T23:46:19.441Z,2.10
2022-11-16T23:50:21.156Z,2.63
2022-11-16T23:54:22.856Z,3.70
2022-11-16T23:58:24.784Z,3.08
